Kyoto, Japan
Current Conditions -  °F | °C
As of 8:00 PM on Friday 19 Dec 2014 (Local Time) from RJOO Reporting Station
Clear Clear  
Wind Chill: 37°   Ceiling: Unl
Heat Index: 41°   Visibility: 6mi
Dew Point: 30°   Wind: 6mph
Humidity: 65%   Direction: 320°NW
Pressure: 30.42"   Gusts: NA
Location:  35.01°N, 135.75°E
Report Text: RJOO 191100Z 32005KT CAVOK 05/M01 Q1030 RMK A3044
Loading
Personal Weather Stations






























Interactive Weather Map New forecast layout! Learn more

10-Day Weather Forecast

Advertisements
Track Severe Weather on mobile